createdAt,value
2023-01-19T00:01:41.234Z,98920.56
2023-01-19T00:04:08.216Z,98942.41
2023-01-19T00:06:35.437Z,98920.03
2023-01-19T00:09:05.340Z,98932.63
2023-01-19T00:11:32.469Z,98929.16
2023-01-19T00:13:59.476Z,98930.34
2023-01-19T00:16:26.491Z,98929.53
2023-01-19T00:18:53.923Z,98938.00
2023-01-19T00:21:24.791Z,98928.56
2023-01-19T00:23:52.936Z,98943.66
2023-01-19T00:26:22.316Z,98922.44
2023-01-19T00:28:50.391Z,98920.97
2023-01-19T00:31:17.369Z,98922.44
2023-01-19T00:33:44.297Z,98921.63
2023-01-19T00:36:11.285Z,98937.31
2023-01-19T00:38:40.918Z,98941.16
2023-01-19T00:41:07.961Z,98929.38
2023-01-19T00:43:35.080Z,98924.91
2023-01-19T00:46:02.183Z,98924.56
2023-01-19T00:48:29.629Z,98915.97
2023-01-19T00:50:56.567Z,98933.69
2023-01-19T00:53:23.692Z,98914.28
2023-01-19T00:55:50.680Z,98920.44
2023-01-19T00:58:17.730Z,98925.75
2023-01-19T01:00:45.064Z,98923.25
2023-01-19T01:03:12.589Z,98929.38
2023-01-19T01:05:42.441Z,98928.56
2023-01-19T01:08:09.409Z,98910.81
2023-01-19T01:10:36.333Z,98915.47
2023-01-19T01:13:20.819Z,98878.38
2023-01-19T01:15:51.349Z,98903.53
2023-01-19T01:18:18.324Z,98898.41
2023-01-19T01:20:45.241Z,98908.38
2023-01-19T01:23:12.934Z,98925.09
2023-01-19T01:25:40.140Z,98905.53
2023-01-19T01:28:08.819Z,98911.50
2023-01-19T01:30:40.310Z,98922.09
2023-01-19T01:33:08.474Z,98884.16
2023-01-19T01:35:35.556Z,98927.38
2023-01-19T01:38:02.628Z,98912.16
2023-01-19T01:40:29.580Z,98923.56
2023-01-19T01:42:56.672Z,98919.91
2023-01-19T01:45:35.104Z,98923.88
2023-01-19T01:48:15.137Z,98918.91
2023-01-19T01:51:08.085Z,98905.19
2023-01-19T01:53:36.080Z,98918.91
2023-01-19T01:56:06.047Z,98928.34
2023-01-19T01:58:33.355Z,98924.03
2023-01-19T02:01:18.777Z,98923.41
2023-01-19T02:03:46.065Z,98926.06
2023-01-19T02:06:14.058Z,98925.03
2023-01-19T02:09:06.462Z,98913.63
2023-01-19T02:11:55.203Z,98901.34
2023-01-19T02:14:22.343Z,98885.94
2023-01-19T02:16:49.741Z,98928.16
2023-01-19T02:19:30.977Z,98908.09
2023-01-19T02:22:11.952Z,98903.41
2023-01-19T02:24:40.381Z,98903.25
2023-01-19T02:27:07.692Z,98906.06
2023-01-19T02:29:36.981Z,98898.13
2023-01-19T02:32:05.924Z,98905.09
2023-01-19T02:34:33.821Z,98897.13
2023-01-19T02:37:06.848Z,98907.38
2023-01-19T02:39:39.657Z,98919.81
2023-01-19T02:42:11.853Z,98904.22
2023-01-19T02:44:39.885Z,98922.94
2023-01-19T02:47:06.924Z,98909.88
2023-01-19T02:49:33.928Z,98900.09
2023-01-19T02:52:01.227Z,98893.13
2023-01-19T02:54:58.208Z,98902.44
2023-01-19T02:57:27.547Z,98908.41
2023-01-19T03:00:14.248Z,98915.75
2023-01-19T03:03:13.843Z,98906.13
2023-01-19T03:05:49.944Z,98903.69
2023-01-19T03:08:29.615Z,98910.16
2023-01-19T03:10:57.977Z,98914.59
2023-01-19T03:13:42.067Z,98913.78
2023-01-19T03:16:22.888Z,98913.78
2023-01-19T03:18:58.487Z,98910.31
2023-01-19T03:21:28.076Z,98912.31
2023-01-19T03:23:58.041Z,98931.50
2023-01-19T03:26:27.684Z,98932.34
2023-01-19T03:28:56.536Z,98966.63
2023-01-19T03:31:26.218Z,98955.22
2023-01-19T03:34:07.422Z,98963.31
2023-01-19T03:36:42.582Z,98989.34
2023-01-19T03:39:10.049Z,98968.97
2023-01-19T03:41:37.966Z,98946.75
2023-01-19T03:44:06.417Z,98941.28
2023-01-19T03:46:34.024Z,98966.97
2023-01-19T03:49:00.917Z,98949.25
2023-01-19T03:51:28.023Z,98971.44
2023-01-19T03:53:54.962Z,98959.03
2023-01-19T03:56:25.534Z,98956.19
2023-01-19T03:58:56.221Z,98971.09
2023-01-19T04:01:25.212Z,98971.56
2023-01-19T04:03:52.939Z,98963.47
2023-01-19T04:06:20.828Z,98992.28
2023-01-19T04:08:49.389Z,99003.69
2023-01-19T04:11:16.771Z,99018.91
2023-01-19T04:13:44.860Z,99003.00
2023-01-19T04:16:12.535Z,98990.38
2023-01-19T04:18:41.469Z,99004.97
2023-01-19T04:21:08.627Z,99003.13
2023-01-19T04:23:35.910Z,99020.66
2023-01-19T04:26:05.800Z,99026.78
2023-01-19T04:28:34.900Z,99015.47
2023-01-19T04:31:02.038Z,99027.25
2023-01-19T04:33:29.638Z,99029.91
2023-01-19T04:35:56.953Z,99011.00
2023-01-19T04:38:25.370Z,99005.34
2023-01-19T04:40:53.595Z,99012.31
2023-01-19T04:43:21.488Z,99006.47
2023-01-19T04:45:49.388Z,99014.44
2023-01-19T04:48:18.472Z,99028.81
2023-01-19T04:50:48.806Z,99006.31
2023-01-19T04:53:16.779Z,99020.56
2023-01-19T04:55:43.867Z,99013.91
2023-01-19T04:58:17.366Z,99025.50
2023-01-19T05:00:47.707Z,99005.13
2023-01-19T05:03:14.902Z,99020.56
2023-01-19T05:05:41.888Z,99026.53
2023-01-19T05:08:09.081Z,99021.38
2023-01-19T05:10:36.777Z,99023.22
2023-01-19T05:13:04.445Z,99027.19
2023-01-19T05:15:31.584Z,99030.13
2023-01-19T05:17:58.707Z,99038.09
2023-01-19T05:20:25.622Z,99025.66
2023-01-19T05:22:53.553Z,99038.75
2023-01-19T05:25:20.673Z,99034.25
2023-01-19T05:27:49.365Z,99027.59
2023-01-19T05:30:16.669Z,99043.50
2023-01-19T05:32:43.873Z,99059.41
2023-01-19T05:35:10.874Z,99040.53
2023-01-19T05:37:38.119Z,99036.03
2023-01-19T05:40:09.417Z,99062.88
2023-01-19T05:42:36.795Z,99066.53
2023-01-19T05:45:04.835Z,99065.16
2023-01-19T05:47:32.403Z,99060.88
2023-01-19T05:49:59.302Z,99072.16
2023-01-19T05:52:26.481Z,99090.53
2023-01-19T05:54:55.250Z,99095.69
2023-01-19T05:57:24.071Z,99105.94
2023-01-19T05:59:51.857Z,99104.91
2023-01-19T06:02:19.795Z,99106.59
2023-01-19T06:04:46.733Z,99101.97
2023-01-19T06:07:13.908Z,99105.78
2023-01-19T06:09:43.741Z,99114.19
2023-01-19T06:12:10.637Z,99116.84
2023-01-19T06:14:38.260Z,99103.75
2023-01-19T06:17:06.784Z,99104.25
2023-01-19T06:19:34.854Z,99103.06
2023-01-19T06:22:03.387Z,99119.81
2023-01-19T06:24:31.609Z,99127.59
2023-01-19T06:27:01.220Z,99116.78
2023-01-19T06:29:29.450Z,99118.28
2023-01-19T06:31:56.608Z,99125.41
2023-01-19T06:34:28.704Z,99127.06
2023-01-19T06:36:56.539Z,99136.50
2023-01-19T06:39:23.538Z,99127.34
2023-01-19T06:41:52.782Z,99126.38
2023-01-19T06:44:20.587Z,99118.88
2023-01-19T06:46:49.038Z,99132.97
2023-01-19T06:49:23.626Z,99143.44
2023-01-19T06:51:52.621Z,99126.47
2023-01-19T06:54:20.238Z,99137.59
2023-01-19T06:56:51.816Z,99137.44
2023-01-19T06:59:18.985Z,99130.09
2023-01-19T07:01:46.074Z,99133.75
2023-01-19T07:04:14.369Z,99145.69
2023-01-19T07:06:44.864Z,99154.28
2023-01-19T07:09:14.211Z,99148.16
2023-01-19T07:11:45.590Z,99126.91
2023-01-19T07:14:13.331Z,99144.50
2023-01-19T07:16:40.624Z,99171.69
2023-01-19T07:19:08.126Z,99159.59
2023-01-19T07:21:35.068Z,99141.50
2023-01-19T07:24:02.061Z,99177.66
2023-01-19T07:26:29.045Z,99155.75
2023-01-19T07:28:56.048Z,99155.75
2023-01-19T07:31:23.315Z,99167.03
2023-01-19T07:33:52.838Z,99190.13
2023-01-19T07:36:21.874Z,99174.03
2023-01-19T07:38:48.769Z,99198.09
2023-01-19T07:41:15.834Z,99200.59
2023-01-19T07:43:42.812Z,99198.09
2023-01-19T07:46:10.004Z,99205.91
2023-01-19T07:48:37.034Z,99215.50
2023-01-19T07:51:11.117Z,99214.84
2023-01-19T07:53:40.311Z,99209.72
2023-01-19T07:56:07.841Z,99189.97
2023-01-19T07:58:35.441Z,99214.03
2023-01-19T08:01:13.182Z,99203.56
2023-01-19T08:03:42.889Z,99215.66
2023-01-19T08:06:22.929Z,99230.63
2023-01-19T08:08:50.485Z,99227.16
2023-01-19T08:11:17.390Z,99222.47
2023-01-19T08:13:44.685Z,99269.75
2023-01-19T08:16:11.630Z,99236.41
2023-01-19T08:18:38.543Z,99255.00
2023-01-19T08:21:05.744Z,99257.66
2023-01-19T08:23:32.755Z,99257.28
2023-01-19T08:25:59.866Z,99221.13
2023-01-19T08:28:26.935Z,99260.97
2023-01-19T08:30:55.696Z,99249.69
2023-01-19T08:33:24.101Z,99267.97
2023-01-19T08:35:54.812Z,99265.50
2023-01-19T08:38:21.920Z,99273.59
2023-01-19T08:40:49.141Z,99251.34
2023-01-19T08:43:17.560Z,99252.69
2023-01-19T08:45:49.238Z,99259.47
2023-01-19T08:48:19.548Z,99261.97
2023-01-19T08:50:47.634Z,99257.84
2023-01-19T08:53:15.598Z,99249.06
2023-01-19T08:55:43.159Z,99252.75
2023-01-19T08:58:10.711Z,99247.06
2023-01-19T09:00:38.914Z,99255.03
2023-01-19T09:03:07.638Z,99256.88
2023-01-19T09:05:37.485Z,99250.09
2023-01-19T09:08:08.395Z,99239.63
2023-01-19T09:10:38.028Z,99238.44
2023-01-19T09:13:07.128Z,99251.56
2023-01-19T09:15:36.025Z,99246.72
2023-01-19T09:18:08.137Z,99246.72
2023-01-19T09:20:36.362Z,99225.47
2023-01-19T09:23:03.582Z,99227.16
2023-01-19T09:25:31.183Z,99236.41
2023-01-19T09:28:02.708Z,99224.78
2023-01-19T09:30:29.989Z,99204.06
2023-01-19T09:33:02.199Z,99216.84
2023-01-19T09:35:29.264Z,99227.78
2023-01-19T09:37:56.454Z,99239.56
2023-01-19T09:40:23.696Z,99246.34
2023-01-19T09:42:57.058Z,99234.41
2023-01-19T09:45:29.822Z,99249.31
2023-01-19T09:47:57.511Z,99230.78
2023-01-19T09:50:29.788Z,99243.03
2023-01-19T09:53:01.704Z,99232.69
2023-01-19T09:55:29.484Z,99253.59
2023-01-19T09:57:56.741Z,99246.28
2023-01-19T10:00:28.173Z,99243.50
2023-01-19T10:03:16.822Z,99245.94
2023-01-19T10:05:47.837Z,99247.56
2023-01-19T10:08:45.927Z,99243.94
2023-01-19T10:11:51.668Z,99247.41
2023-01-19T10:14:43.709Z,99252.41
2023-01-19T10:17:21.855Z,99256.19
2023-01-19T10:19:55.182Z,99235.66
2023-01-19T10:22:24.766Z,99243.28
2023-01-19T10:24:56.110Z,99227.03
2023-01-19T10:27:27.231Z,99232.50
2023-01-19T10:29:54.269Z,99231.16
2023-01-19T10:32:34.454Z,99223.97
2023-01-19T10:35:22.048Z,99244.88
2023-01-19T10:37:49.673Z,99237.72
2023-01-19T10:40:35.780Z,99232.22
2023-01-19T10:43:48.617Z,99227.94
2023-01-19T10:46:41.693Z,99224.16
2023-01-19T10:49:28.569Z,99256.69
2023-01-19T10:51:59.733Z,99237.25
2023-01-19T10:54:27.985Z,99233.25
2023-01-19T10:57:01.189Z,99250.19
2023-01-19T10:59:31.788Z,99246.88
2023-01-19T11:02:22.843Z,99229.03
2023-01-19T11:04:53.156Z,99248.06
2023-01-19T11:07:26.328Z,99250.38
2023-01-19T11:10:18.123Z,99251.97
2023-01-19T11:12:57.523Z,99251.09
2023-01-19T11:16:09.978Z,99239.97
2023-01-19T11:18:42.805Z,99234.94
2023-01-19T11:21:24.309Z,99246.06
2023-01-19T11:23:58.310Z,99239.31
2023-01-19T11:26:40.853Z,99262.22
2023-01-19T11:29:18.848Z,99244.00
2023-01-19T11:31:48.221Z,99271.59
2023-01-19T11:34:40.690Z,99264.28
2023-01-19T11:37:18.873Z,99254.47
2023-01-19T11:39:50.805Z,99246.38
2023-01-19T11:42:18.401Z,99239.06
2023-01-19T11:44:52.988Z,99227.97
2023-01-19T11:47:30.589Z,99236.09
2023-01-19T11:50:16.484Z,99258.00
2023-01-19T11:53:13.255Z,99258.16
2023-01-19T11:55:47.200Z,99280.28
2023-01-19T11:58:18.715Z,99282.13
2023-01-19T12:01:15.640Z,99266.69
2023-01-19T12:04:11.684Z,99281.66
2023-01-19T12:06:47.960Z,99292.44
2023-01-19T12:09:24.861Z,99281.13
2023-01-19T12:12:07.603Z,99305.03
2023-01-19T12:14:55.150Z,99313.63
2023-01-19T12:17:32.454Z,99319.50
2023-01-19T12:20:06.019Z,99304.06
2023-01-19T12:22:40.501Z,99301.56
2023-01-19T12:25:21.942Z,99305.25
2023-01-19T12:27:49.900Z,99313.84
2023-01-19T12:30:25.393Z,99315.00
2023-01-19T12:32:52.834Z,99315.03
2023-01-19T12:35:54.704Z,99325.63
2023-01-19T12:38:49.103Z,99318.38
2023-01-19T12:41:38.362Z,99325.63
2023-01-19T12:44:11.524Z,99325.97
2023-01-19T12:46:59.353Z,99322.34
2023-01-19T12:49:46.817Z,99313.91
2023-01-19T12:52:34.260Z,99302.59
2023-01-19T12:55:16.083Z,99311.09
2023-01-19T12:58:06.345Z,99318.09
2023-01-19T13:00:34.817Z,99312.56
2023-01-19T13:03:19.190Z,99310.91
2023-01-19T13:05:52.725Z,99324.19
2023-01-19T13:08:23.272Z,99312.56
2023-01-19T13:11:13.171Z,99315.88
2023-01-19T13:14:03.857Z,99301.28
2023-01-19T13:16:35.351Z,99285.53
2023-01-19T13:19:05.592Z,99301.66
2023-01-19T13:21:58.797Z,99282.09
2023-01-19T13:24:25.863Z,99281.56
2023-01-19T13:27:03.629Z,99273.97
2023-01-19T13:29:40.595Z,99296.69
2023-01-19T13:32:20.727Z,99303.34
2023-01-19T13:34:59.424Z,99293.56
2023-01-19T13:37:32.125Z,99282.75
2023-01-19T13:40:01.326Z,99269.34
2023-01-19T13:42:39.802Z,99281.25
2023-01-19T13:45:16.650Z,99295.38
2023-01-19T13:47:58.732Z,99311.66
2023-01-19T13:50:29.764Z,99318.28
2023-01-19T13:52:59.022Z,99324.91
2023-01-19T13:55:28.162Z,99328.25
2023-01-19T13:57:57.177Z,99355.28
2023-01-19T14:00:29.945Z,99361.09
2023-01-19T14:03:03.024Z,99347.16
2023-01-19T14:05:31.262Z,99356.13
2023-01-19T14:08:16.571Z,99358.44
2023-01-19T14:10:49.498Z,99358.28
2023-01-19T14:13:25.900Z,99362.09
2023-01-19T14:15:56.640Z,99374.84
2023-01-19T14:18:35.992Z,99350.16
2023-01-19T14:21:14.032Z,99356.13
2023-01-19T14:24:09.965Z,99356.47
2023-01-19T14:27:07.836Z,99358.44
2023-01-19T14:29:35.804Z,99360.78
2023-01-19T14:32:21.202Z,99370.56
2023-01-19T14:35:13.771Z,99373.22
2023-01-19T14:37:50.034Z,99358.75
2023-01-19T14:40:22.424Z,99352.81
2023-01-19T14:42:54.998Z,99346.38
2023-01-19T14:45:28.462Z,99361.59
2023-01-19T14:47:57.801Z,99357.78
2023-01-19T14:50:26.726Z,99354.13
2023-01-19T14:53:02.996Z,99361.13
2023-01-19T14:55:37.906Z,99342.69
2023-01-19T14:58:29.735Z,99324.81
2023-01-19T15:01:00.340Z,99339.91
2023-01-19T15:03:43.577Z,99331.28
2023-01-19T15:06:28.150Z,99331.59
2023-01-19T15:08:55.944Z,99348.34
2023-01-19T15:11:27.045Z,99360.13
2023-01-19T15:13:55.437Z,99354.28
2023-01-19T15:16:23.936Z,99345.34
2023-01-19T15:18:50.973Z,99365.91
2023-01-19T15:21:20.239Z,99383.50
2023-01-19T15:23:58.586Z,99377.03
2023-01-19T15:26:26.859Z,99392.09
2023-01-19T15:28:56.137Z,99373.03
2023-01-19T15:31:24.807Z,99392.28
2023-01-19T15:33:51.975Z,99382.34
2023-01-19T15:36:20.932Z,99361.25
2023-01-19T15:38:51.118Z,99355.47
2023-01-19T15:41:26.668Z,99363.75
2023-01-19T15:43:54.264Z,99361.75
2023-01-19T15:46:22.195Z,99376.34
2023-01-19T15:48:50.658Z,99339.06
2023-01-19T15:51:20.808Z,99352.47
2023-01-19T15:53:49.162Z,99352.81
2023-01-19T15:56:19.682Z,99341.38
2023-01-19T15:58:46.810Z,99343.88
2023-01-19T16:01:17.448Z,99336.41
2023-01-19T16:03:45.158Z,99331.25
2023-01-19T16:06:13.336Z,99325.66
2023-01-19T16:08:46.553Z,99314.03
2023-01-19T16:11:15.552Z,99304.25
2023-01-19T16:13:46.306Z,99306.91
2023-01-19T16:16:22.088Z,99299.13
2023-01-19T16:18:49.497Z,99302.59
2023-01-19T16:21:16.607Z,99304.75
2023-01-19T16:23:53.839Z,99285.50
2023-01-19T16:26:35.122Z,99302.28
2023-01-19T16:29:10.992Z,99309.38
2023-01-19T16:31:38.727Z,99299.94
2023-01-19T16:34:05.913Z,99295.28
2023-01-19T16:36:35.028Z,99303.44
2023-01-19T16:39:09.665Z,99303.75
2023-01-19T16:41:36.795Z,99292.31
2023-01-19T16:44:04.907Z,99290.81
2023-01-19T16:46:37.403Z,99277.22
2023-01-19T16:49:05.411Z,99297.63
2023-01-19T16:51:33.136Z,99291.63
2023-01-19T16:54:00.394Z,99278.06
2023-01-19T16:56:27.418Z,99295.97
2023-01-19T16:58:55.679Z,99294.28
2023-01-19T17:01:23.696Z,99284.19
2023-01-19T17:03:53.642Z,99289.31
2023-01-19T17:06:22.911Z,99288.81
2023-01-19T17:08:52.453Z,99293.31
2023-01-19T17:11:32.574Z,99279.38
2023-01-19T17:14:10.766Z,99277.91
2023-01-19T17:16:47.566Z,99286.66
2023-01-19T17:19:17.152Z,99276.25
2023-01-19T17:21:46.534Z,99280.41
2023-01-19T17:24:13.645Z,99274.91
2023-01-19T17:26:48.372Z,99278.56
2023-01-19T17:29:16.979Z,99274.91
2023-01-19T17:31:50.273Z,99261.84
2023-01-19T17:34:17.422Z,99292.81
2023-01-19T17:36:50.187Z,99293.66
2023-01-19T17:39:18.707Z,99289.50
2023-01-19T17:41:45.719Z,99286.19
2023-01-19T17:44:12.795Z,99291.16
2023-01-19T17:46:40.010Z,99288.34
2023-01-19T17:49:08.032Z,99275.59
2023-01-19T17:51:35.493Z,99291.81
2023-01-19T17:54:02.812Z,99288.16
2023-01-19T17:56:36.829Z,99292.97
2023-01-19T17:59:06.693Z,99293.81
2023-01-19T18:01:40.060Z,99293.31
2023-01-19T18:04:15.616Z,99292.31
2023-01-19T18:06:43.303Z,99284.53
2023-01-19T18:09:10.289Z,99284.53
2023-01-19T18:11:37.588Z,99284.19
2023-01-19T18:14:07.568Z,99274.75
2023-01-19T18:16:35.015Z,99283.19
2023-01-19T18:19:02.144Z,99251.25
2023-01-19T18:21:30.613Z,99270.28
2023-01-19T18:24:08.137Z,99263.13
2023-01-19T18:26:58.385Z,99269.09
2023-01-19T18:29:25.586Z,99264.13
2023-01-19T18:31:52.606Z,99270.13
2023-01-19T18:34:19.629Z,99258.34
2023-01-19T18:36:46.659Z,99258.69
2023-01-19T18:39:13.793Z,99257.69
2023-01-19T18:41:42.341Z,99266.94
2023-01-19T18:44:10.921Z,99265.28
2023-01-19T18:46:38.924Z,99242.78
2023-01-19T18:49:05.998Z,99253.38
2023-01-19T18:51:35.111Z,99256.03
2023-01-19T18:54:05.154Z,99259.84
2023-01-19T18:56:33.455Z,99249.88
2023-01-19T18:59:01.885Z,99250.88
2023-01-19T19:01:32.939Z,99228.84
2023-01-19T19:04:00.554Z,99260.66
2023-01-19T19:06:28.383Z,99248.56
2023-01-19T19:08:58.155Z,99269.28
2023-01-19T19:11:26.778Z,99258.50
2023-01-19T19:13:58.780Z,99258.34
2023-01-19T19:16:26.166Z,99259.16
2023-01-19T19:18:53.331Z,99265.63
2023-01-19T19:21:21.591Z,99273.59
2023-01-19T19:23:56.074Z,99272.63
2023-01-19T19:26:25.202Z,99276.75
2023-01-19T19:28:52.224Z,99280.91
2023-01-19T19:31:21.075Z,99267.94
2023-01-19T19:33:51.539Z,99273.59
2023-01-19T19:36:20.069Z,99267.31
2023-01-19T19:38:48.820Z,99270.28
2023-01-19T19:41:24.288Z,99264.78
2023-01-19T19:43:51.356Z,99246.41
2023-01-19T19:46:20.179Z,99267.44
2023-01-19T19:48:48.679Z,99264.78
2023-01-19T19:51:25.654Z,99270.91
2023-01-19T19:53:57.458Z,99277.72
2023-01-19T19:56:25.397Z,99278.38
2023-01-19T19:58:54.479Z,99276.56
2023-01-19T20:01:26.958Z,99268.59
2023-01-19T20:03:54.985Z,99263.13
2023-01-19T20:06:24.443Z,99251.34
2023-01-19T20:08:53.621Z,99270.09
2023-01-19T20:11:26.127Z,99222.53
2023-01-19T20:13:53.935Z,99254.69
2023-01-19T20:16:22.662Z,99233.28
2023-01-19T20:18:51.715Z,99218.19
2023-01-19T20:21:21.326Z,99234.97
2023-01-19T20:23:55.677Z,99218.19
2023-01-19T20:26:30.521Z,99227.66
2023-01-19T20:29:01.385Z,99218.72
2023-01-19T20:31:32.271Z,99216.88
2023-01-19T20:34:05.426Z,99212.25
2023-01-19T20:36:32.678Z,99219.84
2023-01-19T20:39:08.576Z,99223.84
2023-01-19T20:41:43.186Z,99230.78
2023-01-19T20:44:22.483Z,99230.78
2023-01-19T20:46:49.884Z,99241.38
2023-01-19T20:49:16.868Z,99237.72
2023-01-19T20:51:46.229Z,99240.38
2023-01-19T20:54:14.853Z,99241.72
2023-01-19T20:56:41.923Z,99243.34
2023-01-19T20:59:10.480Z,99243.34
2023-01-19T21:01:43.643Z,99237.06
2023-01-19T21:04:12.217Z,99242.03
2023-01-19T21:06:39.887Z,99236.88
2023-01-19T21:09:08.606Z,99228.72
2023-01-19T21:11:37.821Z,99235.53
2023-01-19T21:14:07.954Z,99238.00
2023-01-19T21:16:37.268Z,99240.16
2023-01-19T21:19:06.275Z,99232.00
2023-01-19T21:21:40.080Z,99231.38
2023-01-19T21:24:08.675Z,99234.34
2023-01-19T21:26:36.079Z,99253.75
2023-01-19T21:29:05.512Z,99249.41
2023-01-19T21:31:35.541Z,99243.13
2023-01-19T21:34:05.959Z,99233.66
2023-01-19T21:36:33.045Z,99241.91
2023-01-19T21:39:05.084Z,99229.66
2023-01-19T21:41:34.181Z,99225.81
2023-01-19T21:44:01.352Z,99226.81
2023-01-19T21:46:33.544Z,99234.13
2023-01-19T21:49:05.515Z,99226.47
2023-01-19T21:51:35.747Z,99216.03
2023-01-19T21:54:06.660Z,99218.34
2023-01-19T21:56:35.674Z,99230.59
2023-01-19T21:59:03.682Z,99226.97
2023-01-19T22:01:32.252Z,99217.81
2023-01-19T22:04:00.540Z,99232.38
2023-01-19T22:06:28.128Z,99230.91
2023-01-19T22:08:55.786Z,99218.78
2023-01-19T22:11:23.701Z,99227.22
2023-01-19T22:13:51.821Z,99223.53
2023-01-19T22:16:20.411Z,99225.22
2023-01-19T22:18:56.462Z,99226.03
2023-01-19T22:21:25.627Z,99217.41
2023-01-19T22:23:56.089Z,99204.78
2023-01-19T22:26:23.418Z,99218.38
2023-01-19T22:28:56.010Z,99206.78
2023-01-19T22:31:24.193Z,99215.56
2023-01-19T22:33:51.575Z,99228.03
2023-01-19T22:36:22.224Z,99220.69
2023-01-19T22:38:59.229Z,99217.03
2023-01-19T22:41:27.845Z,99213.22
2023-01-19T22:43:56.530Z,99217.50
2023-01-19T22:46:25.782Z,99216.69
2023-01-19T22:48:53.553Z,99228.78
2023-01-19T22:51:21.961Z,99218.97
2023-01-19T22:53:49.332Z,99227.78
2023-01-19T22:56:26.911Z,99237.22
2023-01-19T22:58:54.315Z,99235.59
2023-01-19T23:01:25.212Z,99223.63
2023-01-19T23:03:53.800Z,99232.09
2023-01-19T23:06:26.244Z,99242.38
2023-01-19T23:08:55.305Z,99242.69
2023-01-19T23:11:29.755Z,99248.28
2023-01-19T23:13:58.341Z,99244.16
2023-01-19T23:16:25.768Z,99230.03
2023-01-19T23:18:54.706Z,99235.00
2023-01-19T23:21:23.064Z,99238.97
2023-01-19T23:23:57.782Z,99235.59
2023-01-19T23:26:24.969Z,99222.66
2023-01-19T23:28:57.897Z,99246.94
2023-01-19T23:31:28.155Z,99224.03
2023-01-19T23:34:06.788Z,99231.53
2023-01-19T23:36:36.770Z,99240.16
2023-01-19T23:39:10.739Z,99241.78
2023-01-19T23:41:38.038Z,99241.78
2023-01-19T23:44:07.141Z,99242.25
2023-01-19T23:46:34.105Z,99237.78
2023-01-19T23:49:01.116Z,99251.09
2023-01-19T23:51:29.976Z,99250.53
2023-01-19T23:53:58.003Z,99242.56
2023-01-19T23:56:28.024Z,99265.13
2023-01-19T23:58:58.951Z,99238.72
